Time;durP1;ratioP1;P1;durP2;ratioP2;P2;SDS_P1;SDS_P2;PMS_P1;PMS_P2;Temp;Humidity;BMP_temperature;BMP_pressure;BME280_temperature;BME280_humidity;BME280_pressure;Samples;Min_cycle;Max_cycle;Signal;HPM_P1;HPM_P2
2021/01/25 00:01:14;;;;;;;10.93;2.60;;;;;;;;;;4989564;28;20074;-51
2021/01/25 00:03:40;;;;;;;11.02;2.90;;;;;;;;;;4989140;28;20129;-52
2021/01/25 00:06:06;;;;;;;4.47;1.73;;;;;;;;;;4989796;28;20557;-53
2021/01/25 00:08:31;;;;;;;7.47;2.95;;;;;;;;;;4986650;28;20096;-52
2021/01/25 00:11:00;;;;;;;14.88;3.83;;;;;;;;;;4990347;28;20534;-53
2021/01/25 00:13:26;;;;;;;12.15;2.47;;;;;;;;;;4986260;28;20034;-55
2021/01/25 00:15:52;;;;;;;6.07;2.58;;;;;;;;;;4973235;28;20149;-54
2021/01/25 00:18:18;;;;;;;6.82;2.67;;;;;;;;;;4988110;28;20033;-52
2021/01/25 00:20:44;;;;;;;6.03;2.30;;;;;;;;;;4974533;28;20145;-53
2021/01/25 00:23:10;;;;;;;7.72;2.85;;;;;;;;;;4980125;28;20038;-51
2021/01/25 00:25:39;;;;;;;6.05;2.28;;;;;;;;;;4987288;28;20042;-51
2021/01/25 00:28:08;;;;;;;5.90;2.08;;;;;;;;;;4991585;28;20053;-53
2021/01/25 00:30:34;;;;;;;4.97;2.17;;;;;;;;;;4991998;28;20053;-52
2021/01/25 00:33:00;;;;;;;9.63;2.20;;;;;;;;;;4992386;28;20037;-53
2021/01/25 00:35:26;;;;;;;4.03;1.90;;;;;;;;;;4990056;28;20046;-51
2021/01/25 00:37:52;;;;;;;8.00;2.03;;;;;;;;;;4989338;28;20038;-54
2021/01/25 00:40:21;;;;;;;6.05;2.15;;;;;;;;;;4991770;28;20442;-55
2021/01/25 00:42:47;;;;;;;5.50;1.92;;;;;;;;;;4989672;28;20220;-52
2021/01/25 00:45:13;;;;;;;5.35;2.25;;;;;;;;;;4989377;28;20120;-53
2021/01/25 00:47:39;;;;;;;8.75;2.60;;;;;;;;;;4990244;28;20105;-55
2021/01/25 00:50:06;;;;;;;6.80;3.35;;;;;;;;;;4989226;28;20057;-52
2021/01/25 00:52:32;;;;;;;5.55;2.15;;;;;;;;;;4993324;28;20049;-52
2021/01/25 00:54:58;;;;;;;5.65;2.40;;;;;;;;;;4994716;28;20038;-52
2021/01/25 00:57:24;;;;;;;6.38;2.50;;;;;;;;;;4986168;28;20092;-52
2021/01/25 00:59:51;;;;;;;8.88;2.40;;;;;;;;;;4993915;28;20030;-51
2021/01/25 01:02:16;;;;;;;5.70;2.05;;;;;;;;;;4977280;28;20529;-51
2021/01/25 01:04:42;;;;;;;10.20;1.90;;;;;;;;;;4993222;28;20037;-51
2021/01/25 01:07:09;;;;;;;5.78;1.92;;;;;;;;;;4986999;28;20069;-53
2021/01/25 01:09:35;;;;;;;6.93;2.78;;;;;;;;;;4982321;28;20052;-51
2021/01/25 01:12:01;;;;;;;4.85;1.77;;;;;;;;;;4991995;28;20136;-52
2021/01/25 01:14:26;;;;;;;6.28;2.17;;;;;;;;;;4994755;28;20042;-55
2021/01/25 01:16:52;;;;;;;3.83;1.63;;;;;;;;;;4992855;28;20125;-52
2021/01/25 01:19:18;;;;;;;8.15;1.83;;;;;;;;;;4993931;28;20049;-53
2021/01/25 01:21:44;;;;;;;12.45;2.50;;;;;;;;;;4993531;28;20096;-52
2021/01/25 01:24:10;;;;;;;5.05;2.22;;;;;;;;;;4993230;28;20582;-53
2021/01/25 01:26:36;;;;;;;5.15;2.10;;;;;;;;;;4990387;28;20033;-51
2021/01/25 01:29:03;;;;;;;7.68;2.45;;;;;;;;;;4993747;28;20503;-52
2021/01/25 01:31:31;;;;;;;11.70;2.88;;;;;;;;;;4990494;28;20514;-50
2021/01/25 01:33:57;;;;;;;7.50;2.63;;;;;;;;;;4992594;28;20878;-54
2021/01/25 01:36:26;;;;;;;10.88;2.63;;;;;;;;;;4992038;28;20520;-52
2021/01/25 01:38:52;;;;;;;10.52;2.38;;;;;;;;;;4988693;28;20050;-53
2021/01/25 01:41:18;;;;;;;13.15;2.30;;;;;;;;;;4979507;28;20710;-54
2021/01/25 01:43:44;;;;;;;7.00;3.15;;;;;;;;;;4989883;28;20096;-51
2021/01/25 01:46:20;;;;;;;14.48;2.55;;;;;;;;;;4992202;28;20061;-51
2021/01/25 01:48:46;;;;;;;14.43;2.08;;;;;;;;;;4975834;28;20517;-54
2021/01/25 01:51:12;;;;;;;7.13;2.03;;;;;;;;;;4961355;28;20053;-52
2021/01/25 01:53:38;;;;;;;7.47;2.28;;;;;;;;;;4989896;28;20589;-53
2021/01/25 01:56:04;;;;;;;9.68;2.40;;;;;;;;;;4994266;28;20042;-51
2021/01/25 01:58:30;;;;;;;7.75;2.38;;;;;;;;;;4994325;28;20578;-53
2021/01/25 02:00:56;;;;;;;5.93;2.08;;;;;;;;;;4976224;28;20499;-52
2021/01/25 02:03:22;;;;;;;5.78;1.92;;;;;;;;;;4991791;28;20053;-56
2021/01/25 02:05:49;;;;;;;5.32;2.30;;;;;;;;;;4973766;28;20038;-51
2021/01/25 02:08:15;;;;;;;7.88;2.50;;;;;;;;;;4993964;28;20146;-51
2021/01/25 02:10:41;;;;;;;6.95;2.33;;;;;;;;;;4993891;28;20046;-54
2021/01/25 02:13:08;;;;;;;6.13;2.03;;;;;;;;;;4993500;28;20093;-52
2021/01/25 02:15:34;;;;;;;6.18;2.00;;;;;;;;;;4992590;28;20049;-51
2021/01/25 02:18:00;;;;;;;9.73;2.45;;;;;;;;;;4994705;28;20373;-51
2021/01/25 02:20:33;;;;;;;5.65;2.45;;;;;;;;;;4991984;28;20044;-51
2021/01/25 02:23:02;;;;;;;6.10;2.03;;;;;;;;;;4992715;28;20050;-52
2021/01/25 02:25:54;;;;;;;5.90;2.13;;;;;;;;;;4990138;28;20053;-53
2021/01/25 02:28:20;;;;;;;6.30;2.33;;;;;;;;;;4963215;28;20077;-53
2021/01/25 02:30:47;;;;;;;6.15;1.95;;;;;;;;;;4992864;28;20145;-52
2021/01/25 02:33:13;;;;;;;8.50;2.10;;;;;;;;;;4976740;28;20517;-52
2021/01/25 02:35:39;;;;;;;9.50;2.30;;;;;;;;;;4989957;28;20050;-53
2021/01/25 02:38:08;;;;;;;9.85;2.58;;;;;;;;;;4983945;28;20060;-53
2021/01/25 02:40:34;;;;;;;5.65;1.88;;;;;;;;;;4992316;28;20088;-55
2021/01/25 02:43:00;;;;;;;8.52;2.28;;;;;;;;;;4991213;28;20447;-52
2021/01/25 02:45:26;;;;;;;5.78;1.80;;;;;;;;;;4991112;28;20046;-51
2021/01/25 02:47:53;;;;;;;8.68;2.50;;;;;;;;;;4989875;28;20082;-53
2021/01/25 02:50:19;;;;;;;5.85;2.40;;;;;;;;;;4991089;28;20054;-52
2021/01/25 02:52:45;;;;;;;4.55;1.88;;;;;;;;;;4993096;28;20072;-53
2021/01/25 02:55:11;;;;;;;6.57;3.10;;;;;;;;;;4991635;28;20232;-53
2021/01/25 02:57:38;;;;;;;6.93;2.40;;;;;;;;;;4988262;28;20048;-52
2021/01/25 03:00:05;;;;;;;6.90;2.63;;;;;;;;;;4990565;28;20113;-54
2021/01/25 03:02:32;;;;;;;6.90;2.60;;;;;;;;;;4989486;28;20042;-54
2021/01/25 03:04:59;;;;;;;6.13;2.30;;;;;;;;;;4992915;28;20466;-50
2021/01/25 03:07:28;;;;;;;7.60;2.65;;;;;;;;;;4990718;28;20038;-51
2021/01/25 03:09:58;;;;;;;8.75;2.70;;;;;;;;;;4991954;28;20058;-51
2021/01/25 03:12:24;;;;;;;6.32;2.80;;;;;;;;;;4991357;28;20039;-53
2021/01/25 03:14:50;;;;;;;10.98;3.45;;;;;;;;;;4974259;28;20037;-53
2021/01/25 03:17:16;;;;;;;6.85;3.22;;;;;;;;;;4991668;28;20052;-52
2021/01/25 03:19:45;;;;;;;11.35;4.28;;;;;;;;;;4992505;28;20982;-52
2021/01/25 03:22:14;;;;;;;12.00;4.38;;;;;;;;;;4992642;28;20045;-51
2021/01/25 03:24:40;;;;;;;17.80;4.88;;;;;;;;;;4989151;28;20065;-50
2021/01/25 03:27:06;;;;;;;9.43;3.03;;;;;;;;;;4991936;28;20887;-50
2021/01/25 03:29:32;;;;;;;10.43;4.72;;;;;;;;;;4991963;28;20054;-53
2021/01/25 03:31:58;;;;;;;6.60;3.00;;;;;;;;;;4990840;28;20042;-51
2021/01/25 03:34:24;;;;;;;6.57;2.65;;;;;;;;;;4991502;28;20053;-53
2021/01/25 03:36:50;;;;;;;10.27;4.32;;;;;;;;;;4991877;28;20042;-51
2021/01/25 03:39:16;;;;;;;8.75;3.30;;;;;;;;;;4991424;28;20037;-52
2021/01/25 03:41:42;;;;;;;5.95;2.75;;;;;;;;;;4993645;28;20128;-52
2021/01/25 03:44:08;;;;;;;8.05;2.33;;;;;;;;;;4991905;28;20321;-50
2021/01/25 03:46:33;;;;;;;12.63;2.85;;;;;;;;;;4989984;28;20037;-51
2021/01/25 03:48:59;;;;;;;6.88;2.28;;;;;;;;;;4990798;28;20538;-52
2021/01/25 03:51:25;;;;;;;8.35;3.50;;;;;;;;;;4990579;28;20097;-54
2021/01/25 03:53:51;;;;;;;8.40;3.60;;;;;;;;;;4992893;28;20042;-51
2021/01/25 03:56:17;;;;;;;7.88;3.05;;;;;;;;;;4992478;28;20574;-54
2021/01/25 03:58:43;;;;;;;6.55;2.63;;;;;;;;;;4991074;28;20042;-50
2021/01/25 04:01:09;;;;;;;9.48;4.07;;;;;;;;;;4991515;28;20121;-50
2021/01/25 04:03:35;;;;;;;11.45;4.25;;;;;;;;;;4991120;28;20117;-53
2021/01/25 04:06:01;;;;;;;9.63;3.85;;;;;;;;;;4990055;28;20041;-53
2021/01/25 04:08:27;;;;;;;5.85;2.90;;;;;;;;;;4989347;28;20046;-51
2021/01/25 04:10:53;;;;;;;6.93;2.75;;;;;;;;;;4993351;28;20176;-51
2021/01/25 04:13:18;;;;;;;8.40;3.40;;;;;;;;;;4991857;28;20038;-53
2021/01/25 04:15:44;;;;;;;7.43;2.65;;;;;;;;;;4990609;28;20046;-54
2021/01/25 04:18:10;;;;;;;9.65;2.85;;;;;;;;;;4992322;28;20046;-50
2021/01/25 04:20:36;;;;;;;6.95;2.85;;;;;;;;;;4975068;28;20596;-52
2021/01/25 04:23:02;;;;;;;8.30;2.65;;;;;;;;;;4990538;28;20092;-53
2021/01/25 04:25:28;;;;;;;7.05;2.65;;;;;;;;;;4987691;28;20049;-54
2021/01/25 04:27:54;;;;;;;5.75;2.95;;;;;;;;;;4994368;28;20471;-53
2021/01/25 04:30:20;;;;;;;8.75;3.35;;;;;;;;;;4991733;28;20057;-55
2021/01/25 04:32:46;;;;;;;6.43;2.70;;;;;;;;;;4977973;28;20129;-53
2021/01/25 04:35:12;;;;;;;6.57;3.08;;;;;;;;;;4996120;28;20046;-52
2021/01/25 04:37:42;;;;;;;7.70;3.25;;;;;;;;;;4994446;28;21088;-52
2021/01/25 04:40:09;;;;;;;10.05;3.30;;;;;;;;;;4996520;28;20043;-58
2021/01/25 04:42:35;;;;;;;7.25;2.65;;;;;;;;;;4993935;28;20048;-53
2021/01/25 04:45:03;;;;;;;11.80;3.50;;;;;;;;;;4993621;28;20042;-51
2021/01/25 04:47:28;;;;;;;6.22;3.25;;;;;;;;;;4995565;28;20058;-51
2021/01/25 04:49:54;;;;;;;7.95;3.88;;;;;;;;;;4971836;28;20084;-56
2021/01/25 04:52:20;;;;;;;10.77;4.28;;;;;;;;;;4995427;28;20069;-52
2021/01/25 04:54:47;;;;;;;10.27;4.63;;;;;;;;;;4994988;28;20117;-53
2021/01/25 04:57:16;;;;;;;8.77;3.53;;;;;;;;;;4994893;28;20038;-51
2021/01/25 04:59:45;;;;;;;6.63;3.20;;;;;;;;;;4994670;28;20061;-54
2021/01/25 05:02:11;;;;;;;6.88;2.85;;;;;;;;;;4994993;28;20030;-53
2021/01/25 05:04:37;;;;;;;7.18;3.38;;;;;;;;;;4994137;28;20100;-54
2021/01/25 05:07:04;;;;;;;8.60;3.53;;;;;;;;;;4996370;28;20546;-54
2021/01/25 05:09:30;;;;;;;9.40;3.67;;;;;;;;;;4995275;28;20054;-51
2021/01/25 05:12:01;;;;;;;6.00;2.83;;;;;;;;;;4992659;28;20590;-55
2021/01/25 05:14:47;;;;;;;8.02;3.70;;;;;;;;;;4994545;28;20460;-54
2021/01/25 05:17:14;;;;;;;5.20;2.55;;;;;;;;;;4994780;28;20046;-55
2021/01/25 05:19:44;;;;;;;17.23;5.80;;;;;;;;;;4993635;28;20050;-54
2021/01/25 05:22:19;;;;;;;9.25;3.80;;;;;;;;;;4993490;28;20112;-52
2021/01/25 05:24:53;;;;;;;5.47;2.47;;;;;;;;;;4993571;28;20037;-52
2021/01/25 05:27:21;;;;;;;6.18;2.58;;;;;;;;;;4994166;28;20476;-54
2021/01/25 05:29:47;;;;;;;5.75;2.72;;;;;;;;;;4994741;28;20905;-53
2021/01/25 05:32:13;;;;;;;5.53;2.70;;;;;;;;;;4991511;28;20479;-52
2021/01/25 05:34:39;;;;;;;18.33;2.63;;;;;;;;;;4987633;28;20065;-53
2021/01/25 05:37:05;;;;;;;8.63;3.70;;;;;;;;;;4994523;28;20038;-53
2021/01/25 05:39:32;;;;;;;7.00;2.70;;;;;;;;;;4994651;28;20038;-53
2021/01/25 05:41:58;;;;;;;7.15;2.88;;;;;;;;;;4990188;28;20581;-53
2021/01/25 05:44:26;;;;;;;7.38;2.85;;;;;;;;;;4991651;28;20104;-56
2021/01/25 05:47:05;;;;;;;5.30;2.08;;;;;;;;;;4994827;28;20050;-52
2021/01/25 05:49:31;;;;;;;7.57;3.40;;;;;;;;;;4994739;28;20085;-51
2021/01/25 05:51:57;;;;;;;5.93;2.85;;;;;;;;;;4995159;28;20046;-50
2021/01/25 05:54:24;;;;;;;6.63;2.30;;;;;;;;;;4994106;28;20038;-54
2021/01/25 05:56:50;;;;;;;7.40;2.97;;;;;;;;;;4994132;28;20511;-53
2021/01/25 05:59:15;;;;;;;7.70;3.22;;;;;;;;;;4994474;28;20053;-52
2021/01/25 06:01:43;;;;;;;4.18;1.90;;;;;;;;;;4992963;28;20065;-54
2021/01/25 06:04:11;;;;;;;8.77;2.72;;;;;;;;;;4992983;28;20053;-55
2021/01/25 06:06:37;;;;;;;6.00;2.40;;;;;;;;;;4992915;28;21006;-53
2021/01/25 06:09:03;;;;;;;8.00;2.95;;;;;;;;;;4993557;28;20053;-54
2021/01/25 06:11:31;;;;;;;5.85;2.80;;;;;;;;;;4993141;28;20085;-54
2021/01/25 06:13:57;;;;;;;10.18;3.03;;;;;;;;;;4993382;28;20052;-54
2021/01/25 06:16:24;;;;;;;7.78;2.67;;;;;;;;;;4993790;28;20046;-51
2021/01/25 06:18:51;;;;;;;7.03;2.95;;;;;;;;;;4993054;28;20499;-52
2021/01/25 06:21:19;;;;;;;7.63;2.92;;;;;;;;;;4994430;28;20050;-51
2021/01/25 06:23:45;;;;;;;8.10;2.67;;;;;;;;;;4977608;28;20060;-51
2021/01/25 06:26:12;;;;;;;6.03;2.17;;;;;;;;;;4994599;28;20627;-52
2021/01/25 06:28:40;;;;;;;7.27;2.87;;;;;;;;;;4978590;28;20089;-52
2021/01/25 06:31:06;;;;;;;8.23;2.95;;;;;;;;;;4993943;28;20058;-53
2021/01/25 06:33:34;;;;;;;7.13;2.65;;;;;;;;;;4994008;28;20041;-53
2021/01/25 06:36:00;;;;;;;5.18;2.67;;;;;;;;;;4994198;28;20348;-54
2021/01/25 06:38:26;;;;;;;8.18;3.53;;;;;;;;;;4993900;28;20042;-54
2021/01/25 06:40:52;;;;;;;5.65;2.67;;;;;;;;;;4994347;28;20046;-54
2021/01/25 06:43:19;;;;;;;6.50;2.80;;;;;;;;;;4995833;28;20124;-54
2021/01/25 06:45:45;;;;;;;6.40;2.80;;;;;;;;;;4976367;28;20407;-55
2021/01/25 06:48:13;;;;;;;8.98;4.00;;;;;;;;;;4994545;28;20141;-52
2021/01/25 06:50:39;;;;;;;7.70;3.63;;;;;;;;;;4993226;28;20159;-53
2021/01/25 06:53:05;;;;;;;5.85;2.85;;;;;;;;;;4994775;28;20046;-51
2021/01/25 06:55:32;;;;;;;6.53;2.65;;;;;;;;;;4994654;28;20132;-51
2021/01/25 06:58:03;;;;;;;8.52;3.53;;;;;;;;;;4996087;28;20629;-52
2021/01/25 07:00:31;;;;;;;10.40;4.05;;;;;;;;;;4999715;28;20039;-51
2021/01/25 07:02:58;;;;;;;8.00;3.75;;;;;;;;;;5005555;28;20101;-52
2021/01/25 07:05:27;;;;;;;8.13;3.63;;;;;;;;;;5001333;28;20077;-52
2021/01/25 07:08:12;;;;;;;10.45;3.58;;;;;;;;;;5000266;28;20130;-52
2021/01/25 07:10:37;;;;;;;7.05;3.65;;;;;;;;;;4997289;28;20064;-54
2021/01/25 07:13:04;;;;;;;7.22;3.00;;;;;;;;;;4996152;28;20034;-54
2021/01/25 07:15:33;;;;;;;8.07;3.03;;;;;;;;;;4994138;28;20210;-54
2021/01/25 07:18:00;;;;;;;6.57;2.83;;;;;;;;;;4993469;28;20042;-53
2021/01/25 07:20:26;;;;;;;8.85;3.00;;;;;;;;;;4993279;28;20045;-54
2021/01/25 07:22:52;;;;;;;7.55;3.47;;;;;;;;;;4991758;28;20534;-52
2021/01/25 07:25:18;;;;;;;10.13;3.90;;;;;;;;;;4991325;28;20042;-51
2021/01/25 07:27:44;;;;;;;5.68;2.42;;;;;;;;;;4990932;28;20180;-53
2021/01/25 07:30:11;;;;;;;9.13;2.03;;;;;;;;;;4992182;28;20080;-52
2021/01/25 07:32:37;;;;;;;7.95;2.17;;;;;;;;;;4993011;28;20046;-53
2021/01/25 07:35:03;;;;;;;6.63;2.10;;;;;;;;;;4990765;28;20073;-51
2021/01/25 07:37:30;;;;;;;5.28;1.98;;;;;;;;;;4989688;28;20050;-52
2021/01/25 07:39:56;;;;;;;6.65;2.45;;;;;;;;;;4993830;28;20543;-52
2021/01/25 07:42:22;;;;;;;6.85;1.75;;;;;;;;;;4992261;28;20110;-51
2021/01/25 07:44:49;;;;;;;4.85;1.85;;;;;;;;;;4992892;28;20084;-51
2021/01/25 07:47:19;;;;;;;5.15;2.53;;;;;;;;;;4994801;28;21890;-51
2021/01/25 07:49:45;;;;;;;4.70;1.52;;;;;;;;;;4993272;28;20046;-52
2021/01/25 07:52:17;;;;;;;7.40;2.08;;;;;;;;;;4992400;28;20060;-51
2021/01/25 07:54:47;;;;;;;7.38;2.25;;;;;;;;;;4989672;28;20439;-55
2021/01/25 07:57:22;;;;;;;6.63;2.38;;;;;;;;;;4991879;28;20711;-50
2021/01/25 07:59:48;;;;;;;9.48;2.78;;;;;;;;;;4992172;28;20048;-50
2021/01/25 08:02:15;;;;;;;7.40;2.17;;;;;;;;;;4992226;28;20046;-50
2021/01/25 08:04:43;;;;;;;7.18;2.15;;;;;;;;;;4990826;28;20050;-53
2021/01/25 08:07:12;;;;;;;6.53;2.08;;;;;;;;;;4991875;28;20093;-50
2021/01/25 08:09:38;;;;;;;8.98;2.45;;;;;;;;;;4989600;28;20053;-52
2021/01/25 08:12:04;;;;;;;9.75;2.35;;;;;;;;;;4990487;28;20043;-51
2021/01/25 08:14:35;;;;;;;10.00;2.85;;;;;;;;;;4991089;28;20145;-53
2021/01/25 08:17:00;;;;;;;8.70;3.05;;;;;;;;;;4992213;28;20053;-53
2021/01/25 08:19:33;;;;;;;9.07;3.67;;;;;;;;;;4991632;28;20117;-51
2021/01/25 08:22:05;;;;;;;7.78;3.03;;;;;;;;;;4993255;28;22124;-51
2021/01/25 08:24:31;;;;;;;7.32;2.70;;;;;;;;;;4984318;28;20045;-53
2021/01/25 08:27:08;;;;;;;11.68;3.67;;;;;;;;;;4994058;28;20531;-51
2021/01/25 08:29:34;;;;;;;8.77;2.83;;;;;;;;;;4991864;28;20510;-53
2021/01/25 08:32:10;;;;;;;8.32;3.33;;;;;;;;;;4992139;28;20046;-51
2021/01/25 08:34:35;;;;;;;7.70;2.92;;;;;;;;;;4992458;28;20272;-52
2021/01/25 08:37:07;;;;;;;6.88;2.95;;;;;;;;;;4992075;28;20045;-51
2021/01/25 08:39:41;;;;;;;7.57;2.63;;;;;;;;;;4993508;28;20172;-51
2021/01/25 08:42:30;;;;;;;8.27;3.28;;;;;;;;;;4993402;28;20049;-53
2021/01/25 08:45:01;;;;;;;9.02;3.25;;;;;;;;;;4990961;28;20054;-55
2021/01/25 08:47:29;;;;;;;5.78;2.38;;;;;;;;;;4989337;28;20042;-51
2021/01/25 08:49:55;;;;;;;6.53;2.67;;;;;;;;;;4992229;28;20521;-53
2021/01/25 08:52:22;;;;;;;12.10;4.40;;;;;;;;;;4990892;28;20080;-52
2021/01/25 08:54:48;;;;;;;8.73;3.17;;;;;;;;;;4989652;28;20092;-51
2021/01/25 08:57:16;;;;;;;8.82;3.30;;;;;;;;;;4991542;28;20454;-52
2021/01/25 08:59:44;;;;;;;8.15;3.25;;;;;;;;;;4991844;28;20747;-52
2021/01/25 09:02:15;;;;;;;7.00;3.15;;;;;;;;;;4991478;28;20042;-53
2021/01/25 09:04:41;;;;;;;10.25;3.90;;;;;;;;;;4989679;28;20049;-52
2021/01/25 09:07:14;;;;;;;11.90;2.95;;;;;;;;;;4991585;28;20056;-54
2021/01/25 09:09:40;;;;;;;8.00;3.30;;;;;;;;;;4988724;28;22056;-53
2021/01/25 09:12:06;;;;;;;7.60;3.20;;;;;;;;;;4995415;28;20073;-52
2021/01/25 09:14:33;;;;;;;10.02;4.25;;;;;;;;;;4995308;28;20982;-51
2021/01/25 09:16:59;;;;;;;14.63;3.90;;;;;;;;;;4996850;28;20430;-52
2021/01/25 09:19:25;;;;;;;9.27;4.40;;;;;;;;;;4997431;28;20038;-52
2021/01/25 09:21:50;;;;;;;10.18;4.25;;;;;;;;;;4996017;28;20049;-52
2021/01/25 09:24:16;;;;;;;11.68;3.55;;;;;;;;;;4996802;28;20391;-53
2021/01/25 09:26:42;;;;;;;8.07;3.50;;;;;;;;;;4996081;28;20076;-53
2021/01/25 09:29:08;;;;;;;7.63;3.45;;;;;;;;;;4980265;28;20050;-52
2021/01/25 09:31:34;;;;;;;10.23;5.82;;;;;;;;;;4996055;28;20602;-50
2021/01/25 09:34:00;;;;;;;7.68;3.75;;;;;;;;;;4995871;28;20598;-52
2021/01/25 09:36:26;;;;;;;9.70;3.40;;;;;;;;;;4992476;28;20103;-53
2021/01/25 09:38:51;;;;;;;6.22;3.15;;;;;;;;;;4995707;28;20042;-53
2021/01/25 09:41:17;;;;;;;9.07;3.17;;;;;;;;;;4996344;28;20038;-50
2021/01/25 09:43:44;;;;;;;8.43;2.97;;;;;;;;;;4994050;28;20046;-51
2021/01/25 09:46:09;;;;;;;6.47;2.88;;;;;;;;;;4992987;28;20042;-52
2021/01/25 09:48:35;;;;;;;8.95;3.63;;;;;;;;;;4994573;28;20118;-55
2021/01/25 09:51:01;;;;;;;8.63;3.20;;;;;;;;;;4993981;28;20068;-52
2021/01/25 09:53:27;;;;;;;8.43;3.22;;;;;;;;;;4995037;28;20153;-52
2021/01/25 09:55:55;;;;;;;6.55;2.55;;;;;;;;;;4994545;28;20046;-51
2021/01/25 09:58:22;;;;;;;8.13;3.10;;;;;;;;;;4995562;28;20365;-51
2021/01/25 10:00:48;;;;;;;6.88;2.47;;;;;;;;;;4993701;28;20052;-51
2021/01/25 10:03:14;;;;;;;9.63;3.33;;;;;;;;;;4995002;28;20066;-52
2021/01/25 10:05:42;;;;;;;7.40;2.75;;;;;;;;;;4994007;28;20527;-52
2021/01/25 10:08:08;;;;;;;6.53;2.70;;;;;;;;;;4994272;28;20472;-52
2021/01/25 10:10:34;;;;;;;9.57;2.95;;;;;;;;;;4995037;28;20871;-51
2021/01/25 10:13:00;;;;;;;9.85;3.50;;;;;;;;;;4995940;28;20037;-55
2021/01/25 10:15:26;;;;;;;7.93;2.85;;;;;;;;;;4993259;28;20089;-53
2021/01/25 10:17:52;;;;;;;9.27;3.03;;;;;;;;;;4985780;28;20061;-54
2021/01/25 10:20:18;;;;;;;7.65;2.47;;;;;;;;;;4991380;28;20070;-51
2021/01/25 10:22:44;;;;;;;6.38;2.40;;;;;;;;;;4994239;28;20099;-52
2021/01/25 10:25:10;;;;;;;6.28;2.25;;;;;;;;;;4974554;28;20042;-52
2021/01/25 10:30:39;;;;;;;6.53;1.98;;;;;;;;;;4994958;23;20073;-53
2021/01/25 10:35:47;;;;;;;9.68;3.28;;;;;;;;;;5024459;23;20825;-51
2021/01/25 10:38:13;;;;;;;8.15;2.53;;;;;;;;;;5003092;28;20043;-52
2021/01/25 10:40:39;;;;;;;6.70;2.83;;;;;;;;;;5001558;28;20059;-51
2021/01/25 10:43:06;;;;;;;7.63;3.55;;;;;;;;;;5002120;28;20419;-57
2021/01/25 10:45:32;;;;;;;11.70;3.75;;;;;;;;;;4999408;28;20046;-53
2021/01/25 10:47:58;;;;;;;9.82;3.22;;;;;;;;;;5001520;28;20553;-51
2021/01/25 10:50:23;;;;;;;7.63;2.90;;;;;;;;;;5001324;28;20865;-51
2021/01/25 10:52:50;;;;;;;8.15;3.05;;;;;;;;;;5001731;28;20042;-50
2021/01/25 10:55:16;;;;;;;8.00;2.92;;;;;;;;;;5000031;28;20698;-51
2021/01/25 10:57:42;;;;;;;6.90;3.67;;;;;;;;;;5001579;28;20076;-51
2021/01/25 11:00:13;;;;;;;10.70;2.40;;;;;;;;;;5001732;28;20380;-53
2021/01/25 11:02:39;;;;;;;8.25;3.00;;;;;;;;;;4998165;28;20119;-52
2021/01/25 11:05:07;;;;;;;8.05;2.40;;;;;;;;;;5000862;28;20545;-51
2021/01/25 11:07:33;;;;;;;13.65;3.67;;;;;;;;;;5001123;28;20041;-50
2021/01/25 11:09:59;;;;;;;10.95;3.90;;;;;;;;;;5009994;28;20528;-50
2021/01/25 11:12:24;;;;;;;14.55;3.70;;;;;;;;;;5008410;28;20049;-52
2021/01/25 11:14:50;;;;;;;8.23;3.58;;;;;;;;;;5010392;28;20518;-51
2021/01/25 11:17:16;;;;;;;7.95;2.63;;;;;;;;;;5014718;28;20041;-51
2021/01/25 11:19:42;;;;;;;10.27;3.80;;;;;;;;;;5016174;28;20107;-53
2021/01/25 11:22:08;;;;;;;12.48;3.88;;;;;;;;;;5014445;28;20037;-50
2021/01/25 11:24:34;;;;;;;8.32;3.08;;;;;;;;;;5012100;28;20026;-53
2021/01/25 11:27:03;;;;;;;6.82;2.88;;;;;;;;;;5011996;28;20498;-54
2021/01/25 11:29:30;;;;;;;6.80;3.80;;;;;;;;;;5008127;28;20091;-52
2021/01/25 11:32:03;;;;;;;10.77;3.95;;;;;;;;;;5009792;28;20033;-51
2021/01/25 11:34:28;;;;;;;10.07;3.42;;;;;;;;;;5010549;28;20046;-54
2021/01/25 11:36:55;;;;;;;6.20;3.10;;;;;;;;;;5025635;28;20567;-51
2021/01/25 11:39:22;;;;;;;7.25;3.13;;;;;;;;;;5029531;28;20219;-51
2021/01/25 11:41:48;;;;;;;9.68;3.60;;;;;;;;;;5032206;28;20078;-52
2021/01/25 11:44:13;;;;;;;10.98;4.60;;;;;;;;;;5025520;28;20418;-52
2021/01/25 11:46:39;;;;;;;8.60;3.80;;;;;;;;;;5024450;28;20050;-53
2021/01/25 11:49:05;;;;;;;6.85;3.28;;;;;;;;;;5024181;28;20034;-52
2021/01/25 11:51:31;;;;;;;9.10;4.10;;;;;;;;;;5024106;28;20350;-54
2021/01/25 11:53:57;;;;;;;8.63;4.28;;;;;;;;;;5025537;28;20041;-51
2021/01/25 11:56:23;;;;;;;8.90;4.50;;;;;;;;;;5024077;28;20110;-53
2021/01/25 11:58:49;;;;;;;9.38;4.05;;;;;;;;;;5023973;28;20107;-51
2021/01/25 12:01:15;;;;;;;9.90;4.25;;;;;;;;;;5022778;28;20057;-52
2021/01/25 12:03:40;;;;;;;9.65;4.20;;;;;;;;;;5022648;28;20067;-51
2021/01/25 12:06:06;;;;;;;14.20;5.13;;;;;;;;;;5022060;28;20037;-54
2021/01/25 12:08:35;;;;;;;12.80;4.30;;;;;;;;;;5023514;28;20116;-51
2021/01/25 12:11:05;;;;;;;7.53;3.63;;;;;;;;;;5025732;28;20489;-52
2021/01/25 12:13:31;;;;;;;8.30;2.83;;;;;;;;;;5022566;28;20042;-52
2021/01/25 12:15:57;;;;;;;8.63;4.35;;;;;;;;;;5026443;28;20075;-52
2021/01/25 12:18:23;;;;;;;8.93;4.28;;;;;;;;;;5024110;28;20049;-53
2021/01/25 12:20:49;;;;;;;7.80;3.17;;;;;;;;;;5024012;28;20068;-55
2021/01/25 12:23:15;;;;;;;10.07;5.70;;;;;;;;;;5018747;28;20073;-52
2021/01/25 12:25:41;;;;;;;6.47;3.45;;;;;;;;;;5023110;28;20434;-51
2021/01/25 12:28:07;;;;;;;6.68;2.97;;;;;;;;;;5026082;28;20050;-52
2021/01/25 12:30:33;;;;;;;9.93;4.68;;;;;;;;;;5023408;28;20696;-52
2021/01/25 12:32:59;;;;;;;10.65;4.60;;;;;;;;;;5024428;28;20128;-54
2021/01/25 12:35:25;;;;;;;11.73;5.20;;;;;;;;;;5022082;28;20092;-51
2021/01/25 12:37:53;;;;;;;12.73;4.82;;;;;;;;;;5022932;28;20137;-51
2021/01/25 12:40:20;;;;;;;8.18;4.30;;;;;;;;;;5021488;28;20454;-51
2021/01/25 12:42:46;;;;;;;9.02;2.90;;;;;;;;;;5021034;28;20037;-54
2021/01/25 12:45:13;;;;;;;6.63;3.08;;;;;;;;;;5023483;28;20052;-51
2021/01/25 12:47:40;;;;;;;13.80;5.22;;;;;;;;;;5027218;28;20147;-52
2021/01/25 12:50:06;;;;;;;10.50;4.57;;;;;;;;;;5027475;28;20072;-52
2021/01/25 12:52:33;;;;;;;11.13;6.00;;;;;;;;;;5025956;28;20063;-52
2021/01/25 12:55:00;;;;;;;10.07;4.28;;;;;;;;;;5027702;28;20045;-55
2021/01/25 12:57:26;;;;;;;13.98;5.38;;;;;;;;;;5027386;28;20091;-52
2021/01/25 12:59:52;;;;;;;10.52;4.50;;;;;;;;;;5010647;28;21838;-54
2021/01/25 13:02:18;;;;;;;9.63;3.85;;;;;;;;;;5024207;28;20047;-51
2021/01/25 13:04:43;;;;;;;11.80;4.00;;;;;;;;;;5008571;28;20719;-52
2021/01/25 13:07:09;;;;;;;10.32;5.32;;;;;;;;;;5026320;28;20431;-51
2021/01/25 13:09:35;;;;;;;11.05;4.70;;;;;;;;;;5024048;28;20081;-51
2021/01/25 13:12:01;;;;;;;8.43;4.13;;;;;;;;;;5025028;28;20048;-51
2021/01/25 13:14:27;;;;;;;14.18;5.95;;;;;;;;;;5017998;28;20032;-54
2021/01/25 13:16:53;;;;;;;13.15;5.78;;;;;;;;;;5026359;28;20103;-52
2021/01/25 13:19:19;;;;;;;13.60;6.22;;;;;;;;;;5011527;28;20048;-52
2021/01/25 13:21:47;;;;;;;11.90;5.78;;;;;;;;;;5005767;28;20526;-51
2021/01/25 13:24:13;;;;;;;10.80;5.05;;;;;;;;;;5006150;28;20136;-52
2021/01/25 13:26:39;;;;;;;8.55;3.83;;;;;;;;;;5002423;28;20482;-51
2021/01/25 13:29:05;;;;;;;10.90;3.45;;;;;;;;;;5007112;28;20041;-52
2021/01/25 13:31:31;;;;;;;10.63;5.10;;;;;;;;;;5005938;28;20045;-54
2021/01/25 13:33:57;;;;;;;13.13;5.03;;;;;;;;;;4990721;28;20457;-52
2021/01/25 13:36:23;;;;;;;9.77;4.78;;;;;;;;;;5005994;28;20042;-50
2021/01/25 13:38:48;;;;;;;14.35;6.35;;;;;;;;;;5008049;28;20632;-51
2021/01/25 13:41:15;;;;;;;11.70;5.43;;;;;;;;;;5004711;28;20092;-51
2021/01/25 13:43:41;;;;;;;13.90;5.75;;;;;;;;;;5004353;28;20045;-54
2021/01/25 13:46:07;;;;;;;13.88;6.53;;;;;;;;;;5006796;28;20992;-49
2021/01/25 13:48:33;;;;;;;10.05;4.70;;;;;;;;;;5006185;28;20065;-50
2021/01/25 13:50:59;;;;;;;9.27;4.72;;;;;;;;;;5006771;28;20510;-51
2021/01/25 13:53:25;;;;;;;12.98;5.85;;;;;;;;;;5004845;28;20084;-51
2021/01/25 13:55:51;;;;;;;11.77;5.60;;;;;;;;;;5005979;28;20492;-51
2021/01/25 13:58:17;;;;;;;10.43;4.53;;;;;;;;;;5005727;28;20046;-51
2021/01/25 14:00:43;;;;;;;12.02;5.10;;;;;;;;;;5010705;28;20101;-51
2021/01/25 14:03:09;;;;;;;11.95;5.22;;;;;;;;;;5013761;28;20532;-50
2021/01/25 14:05:35;;;;;;;10.63;5.10;;;;;;;;;;5003930;28;20064;-52
2021/01/25 14:08:00;;;;;;;14.38;5.47;;;;;;;;;;5012646;28;20037;-55
2021/01/25 14:10:27;;;;;;;12.02;5.53;;;;;;;;;;5009899;28;21339;-53
2021/01/25 14:12:53;;;;;;;15.15;6.28;;;;;;;;;;5011132;28;20515;-54
2021/01/25 14:15:20;;;;;;;12.82;5.05;;;;;;;;;;5010079;28;20041;-53
2021/01/25 14:17:46;;;;;;;11.80;5.93;;;;;;;;;;5009602;28;20505;-52
2021/01/25 14:20:14;;;;;;;11.43;5.65;;;;;;;;;;5009697;28;20037;-50
2021/01/25 14:22:40;;;;;;;15.80;6.20;;;;;;;;;;5009410;28;20584;-52
2021/01/25 14:25:08;;;;;;;12.30;5.00;;;;;;;;;;5011093;28;20045;-52
2021/01/25 14:27:35;;;;;;;9.13;4.05;;;;;;;;;;5008772;28;20044;-54
2021/01/25 14:30:03;;;;;;;12.00;5.40;;;;;;;;;;5008826;28;20050;-52
2021/01/25 14:32:29;;;;;;;10.48;5.38;;;;;;;;;;5016111;28;20507;-53
2021/01/25 14:34:54;;;;;;;11.77;5.40;;;;;;;;;;5024448;28;20059;-51
2021/01/25 14:37:20;;;;;;;10.50;4.78;;;;;;;;;;5023460;28;20091;-52
2021/01/25 14:39:46;;;;;;;13.43;5.38;;;;;;;;;;5024028;28;20048;-51
2021/01/25 14:42:15;;;;;;;16.20;5.72;;;;;;;;;;5023288;28;20069;-50